sensor_id;sensor_type;location;lat;lon;timestamp;pressure;altitude;pressure_sealevel;temperature
70415;BMP280;57837;52.064;113.478;2022-10-28T00:03:00;94892.91;;;-7.10
70415;BMP280;57837;52.064;113.478;2022-10-28T00:06:07;94895.78;;;-7.02
70415;BMP280;57837;52.064;113.478;2022-10-28T00:09:11;94899.63;;;-6.91
70415;BMP280;57837;52.064;113.478;2022-10-28T00:12:14;94906.38;;;-6.78
70415;BMP280;57837;52.064;113.478;2022-10-28T00:15:17;94901.34;;;-6.42
70415;BMP280;57837;52.064;113.478;2022-10-28T00:18:21;94902.88;;;-5.88
70415;BMP280;57837;52.064;113.478;2022-10-28T00:21:27;94902.34;;;-5.19
70415;BMP280;57837;52.064;113.478;2022-10-28T00:24:31;94898.44;;;-4.68
70415;BMP280;57837;52.064;113.478;2022-10-28T00:27:34;94906.28;;;-4.35
70415;BMP280;57837;52.064;113.478;2022-10-28T00:30:38;94899.69;;;-4.10
70415;BMP280;57837;52.064;113.478;2022-10-28T00:33:41;94899.22;;;-4.04
70415;BMP280;57837;52.064;113.478;2022-10-28T00:36:46;94900.25;;;-3.96
70415;BMP280;57837;52.064;113.478;2022-10-28T00:39:49;94901.78;;;-3.66
70415;BMP280;57837;52.064;113.478;2022-10-28T00:42:53;94907.06;;;-3.20
70415;BMP280;57837;52.064;113.478;2022-10-28T00:45:57;94911.16;;;-3.07
70415;BMP280;57837;52.064;113.478;2022-10-28T00:49:05;94912.78;;;-2.82
70415;BMP280;57837;52.064;113.478;2022-10-28T00:52:17;94916.16;;;-2.99
70415;BMP280;57837;52.064;113.478;2022-10-28T00:55:22;94917.28;;;-3.08
70415;BMP280;57837;52.064;113.478;2022-10-28T00:58:26;94910.78;;;-2.97
70415;BMP280;57837;52.064;113.478;2022-10-28T01:01:30;94915.44;;;-2.57
70415;BMP280;57837;52.064;113.478;2022-10-28T01:04:34;94906.59;;;-2.39
70415;BMP280;57837;52.064;113.478;2022-10-28T01:07:38;94913.47;;;-2.40
70415;BMP280;57837;52.064;113.478;2022-10-28T01:22:20;94912.00;;;-1.59
70415;BMP280;57837;52.064;113.478;2022-10-28T01:28:47;94902.84;;;-0.99
70415;BMP280;57837;52.064;113.478;2022-10-28T01:31:58;94907.91;;;-0.87
70415;BMP280;57837;52.064;113.478;2022-10-28T01:35:11;94905.19;;;-0.50
70415;BMP280;57837;52.064;113.478;2022-10-28T01:41:55;94908.97;;;-0.88
70415;BMP280;57837;52.064;113.478;2022-10-28T01:45:37;94894.84;;;-1.13
70415;BMP280;57837;52.064;113.478;2022-10-28T01:49:32;94896.50;;;-1.05
70415;BMP280;57837;52.064;113.478;2022-10-28T01:52:18;94896.78;;;-0.82
70415;BMP280;57837;52.064;113.478;2022-10-28T01:55:33;94894.44;;;-0.59
70415;BMP280;57837;52.064;113.478;2022-10-28T01:58:38;94892.25;;;-0.73
70415;BMP280;57837;52.064;113.478;2022-10-28T02:01:42;94895.53;;;-0.73
70415;BMP280;57837;52.064;113.478;2022-10-28T02:04:46;94892.13;;;-0.64
70415;BMP280;57837;52.064;113.478;2022-10-28T02:07:50;94890.50;;;-0.29
70415;BMP280;57837;52.064;113.478;2022-10-28T02:14:33;94883.19;;;0.17
70415;BMP280;57837;52.064;113.478;2022-10-28T02:18:15;94880.25;;;0.34
70415;BMP280;57837;52.064;113.478;2022-10-28T02:22:27;94882.41;;;0.67
70415;BMP280;57837;52.064;113.478;2022-10-28T02:25:22;94882.47;;;0.71
70415;BMP280;57837;52.064;113.478;2022-10-28T02:32:13;94878.75;;;1.22
70415;BMP280;57837;52.064;113.478;2022-10-28T02:35:32;94882.75;;;1.23
70415;BMP280;57837;52.064;113.478;2022-10-28T02:38:48;94873.91;;;0.98
70415;BMP280;57837;52.064;113.478;2022-10-28T02:42:01;94864.09;;;0.61
70415;BMP280;57837;52.064;113.478;2022-10-28T02:45:10;94862.75;;;0.67
70415;BMP280;57837;52.064;113.478;2022-10-28T02:48:21;94854.72;;;0.85
70415;BMP280;57837;52.064;113.478;2022-10-28T02:51:33;94862.19;;;0.93
70415;BMP280;57837;52.064;113.478;2022-10-28T02:54:47;94862.91;;;1.32
70415;BMP280;57837;52.064;113.478;2022-10-28T02:57:52;94860.97;;;1.07
70415;BMP280;57837;52.064;113.478;2022-10-28T03:00:56;94863.50;;;0.87
70415;BMP280;57837;52.064;113.478;2022-10-28T03:03:59;94859.34;;;0.98
70415;BMP280;57837;52.064;113.478;2022-10-28T03:07:03;94851.97;;;1.13
70415;BMP280;57837;52.064;113.478;2022-10-28T03:10:07;94842.78;;;1.27
70415;BMP280;57837;52.064;113.478;2022-10-28T03:13:11;94843.22;;;1.33
70415;BMP280;57837;52.064;113.478;2022-10-28T03:16:15;94840.81;;;1.21
70415;BMP280;57837;52.064;113.478;2022-10-28T03:19:18;94842.69;;;1.24
70415;BMP280;57837;52.064;113.478;2022-10-28T03:22:21;94842.69;;;1.47
70415;BMP280;57837;52.064;113.478;2022-10-28T03:25:25;94842.41;;;1.52
70415;BMP280;57837;52.064;113.478;2022-10-28T03:28:28;94829.03;;;1.35
70415;BMP280;57837;52.064;113.478;2022-10-28T03:31:32;94833.56;;;1.23
70415;BMP280;57837;52.064;113.478;2022-10-28T03:34:35;94826.47;;;1.32
70415;BMP280;57837;52.064;113.478;2022-10-28T03:37:42;94816.50;;;1.50
70415;BMP280;57837;52.064;113.478;2022-10-28T03:40:47;94812.09;;;1.47
70415;BMP280;57837;52.064;113.478;2022-10-28T03:43:51;94811.06;;;1.51
70415;BMP280;57837;52.064;113.478;2022-10-28T03:46:55;94815.16;;;1.56
70415;BMP280;57837;52.064;113.478;2022-10-28T03:49:58;94812.88;;;1.51
70415;BMP280;57837;52.064;113.478;2022-10-28T03:53:02;94808.31;;;1.60
70415;BMP280;57837;52.064;113.478;2022-10-28T03:56:06;94795.41;;;1.76
70415;BMP280;57837;52.064;113.478;2022-10-28T03:59:09;94789.44;;;1.68
70415;BMP280;57837;52.064;113.478;2022-10-28T04:02:17;94783.28;;;1.69
70415;BMP280;57837;52.064;113.478;2022-10-28T04:05:21;94789.75;;;1.63
70415;BMP280;57837;52.064;113.478;2022-10-28T04:08:25;94783.03;;;1.78
70415;BMP280;57837;52.064;113.478;2022-10-28T04:11:28;94779.63;;;1.96
70415;BMP280;57837;52.064;113.478;2022-10-28T04:14:32;94773.94;;;2.06
70415;BMP280;57837;52.064;113.478;2022-10-28T04:17:35;94771.56;;;2.21
70415;BMP280;57837;52.064;113.478;2022-10-28T04:20:39;94765.53;;;2.36
70415;BMP280;57837;52.064;113.478;2022-10-28T04:23:43;94769.84;;;2.32
70415;BMP280;57837;52.064;113.478;2022-10-28T04:26:46;94769.59;;;2.40
70415;BMP280;57837;52.064;113.478;2022-10-28T04:29:49;94763.16;;;2.54
70415;BMP280;57837;52.064;113.478;2022-10-28T04:32:52;94763.59;;;2.59
70415;BMP280;57837;52.064;113.478;2022-10-28T04:35:56;94759.19;;;2.56
70415;BMP280;57837;52.064;113.478;2022-10-28T04:38:59;94759.97;;;2.64
70415;BMP280;57837;52.064;113.478;2022-10-28T04:42:03;94759.28;;;2.67
70415;BMP280;57837;52.064;113.478;2022-10-28T04:45:08;94763.56;;;2.56
70415;BMP280;57837;52.064;113.478;2022-10-28T04:48:11;94754.41;;;2.55
70415;BMP280;57837;52.064;113.478;2022-10-28T04:51:15;94760.97;;;2.52
70415;BMP280;57837;52.064;113.478;2022-10-28T04:54:18;94754.00;;;2.49
70415;BMP280;57837;52.064;113.478;2022-10-28T04:57:40;94744.84;;;2.48
70415;BMP280;57837;52.064;113.478;2022-10-28T05:00:43;94732.59;;;2.61
70415;BMP280;57837;52.064;113.478;2022-10-28T05:03:47;94738.63;;;2.83
70415;BMP280;57837;52.064;113.478;2022-10-28T05:06:50;94737.66;;;3.01
70415;BMP280;57837;52.064;113.478;2022-10-28T05:09:54;94722.84;;;3.18
70415;BMP280;57837;52.064;113.478;2022-10-28T05:12:58;94724.69;;;3.24
70415;BMP280;57837;52.064;113.478;2022-10-28T05:16:02;94709.75;;;3.26
70415;BMP280;57837;52.064;113.478;2022-10-28T05:19:05;94705.75;;;3.32
70415;BMP280;57837;52.064;113.478;2022-10-28T05:22:09;94704.34;;;3.42
70415;BMP280;57837;52.064;113.478;2022-10-28T05:25:12;94706.94;;;3.45
70415;BMP280;57837;52.064;113.478;2022-10-28T05:28:16;94700.75;;;3.50
70415;BMP280;57837;52.064;113.478;2022-10-28T05:31:19;94705.91;;;3.61
70415;BMP280;57837;52.064;113.478;2022-10-28T05:34:23;94696.06;;;3.66
70415;BMP280;57837;52.064;113.478;2022-10-28T05:37:27;94699.31;;;3.60
70415;BMP280;57837;52.064;113.478;2022-10-28T05:40:31;94690.88;;;3.52
70415;BMP280;57837;52.064;113.478;2022-10-28T05:43:35;94682.81;;;3.46
70415;BMP280;57837;52.064;113.478;2022-10-28T05:46:38;94679.16;;;3.44
70415;BMP280;57837;52.064;113.478;2022-10-28T05:49:42;94676.19;;;3.38
70415;BMP280;57837;52.064;113.478;2022-10-28T05:52:47;94676.22;;;3.49
70415;BMP280;57837;52.064;113.478;2022-10-28T05:55:51;94665.66;;;3.58
70415;BMP280;57837;52.064;113.478;2022-10-28T05:58:54;94666.41;;;3.58
70415;BMP280;57837;52.064;113.478;2022-10-28T06:01:57;94666.44;;;3.62
70415;BMP280;57837;52.064;113.478;2022-10-28T06:05:01;94665.34;;;3.63
70415;BMP280;57837;52.064;113.478;2022-10-28T06:08:05;94660.97;;;3.67
70415;BMP280;57837;52.064;113.478;2022-10-28T06:11:09;94661.38;;;3.72
70415;BMP280;57837;52.064;113.478;2022-10-28T06:14:12;94651.88;;;3.83
70415;BMP280;57837;52.064;113.478;2022-10-28T06:17:16;94648.97;;;3.96
70415;BMP280;57837;52.064;113.478;2022-10-28T06:20:19;94648.63;;;3.97
70415;BMP280;57837;52.064;113.478;2022-10-28T06:23:25;94647.91;;;4.00
70415;BMP280;57837;52.064;113.478;2022-10-28T06:26:28;94644.63;;;4.10
70415;BMP280;57837;52.064;113.478;2022-10-28T06:29:32;94644.66;;;4.21
70415;BMP280;57837;52.064;113.478;2022-10-28T06:32:36;94649.75;;;4.17
70415;BMP280;57837;52.064;113.478;2022-10-28T06:35:40;94638.78;;;4.17
70415;BMP280;57837;52.064;113.478;2022-10-28T06:38:43;94638.06;;;4.09
70415;BMP280;57837;52.064;113.478;2022-10-28T06:41:46;94641.00;;;4.15
70415;BMP280;57837;52.064;113.478;2022-10-28T06:44:50;94634.03;;;4.19
70415;BMP280;57837;52.064;113.478;2022-10-28T06:48:00;94625.97;;;4.20
70415;BMP280;57837;52.064;113.478;2022-10-28T06:51:04;94625.63;;;4.26
70415;BMP280;57837;52.064;113.478;2022-10-28T06:54:08;94627.50;;;4.36
70415;BMP280;57837;52.064;113.478;2022-10-28T06:57:12;94623.84;;;4.37
70415;BMP280;57837;52.064;113.478;2022-10-28T07:00:16;94627.13;;;4.37
70415;BMP280;57837;52.064;113.478;2022-10-28T07:03:20;94620.50;;;4.43
70415;BMP280;57837;52.064;113.478;2022-10-28T07:06:23;94612.09;;;4.43
70415;BMP280;57837;52.064;113.478;2022-10-28T07:09:26;94618.31;;;4.45
70415;BMP280;57837;52.064;113.478;2022-10-28T07:12:29;94618.34;;;4.49
70415;BMP280;57837;52.064;113.478;2022-10-28T07:15:33;94614.66;;;4.46
70415;BMP280;57837;52.064;113.478;2022-10-28T07:18:37;94621.25;;;4.47
70415;BMP280;57837;52.064;113.478;2022-10-28T07:21:41;94609.19;;;4.51
70415;BMP280;57837;52.064;113.478;2022-10-28T07:24:44;94611.38;;;4.53
70415;BMP280;57837;52.064;113.478;2022-10-28T07:27:47;94616.88;;;4.58
70415;BMP280;57837;52.064;113.478;2022-10-28T07:30:50;94615.75;;;4.56
70415;BMP280;57837;52.064;113.478;2022-10-28T07:33:53;94614.31;;;4.55
70415;BMP280;57837;52.064;113.478;2022-10-28T07:36:57;94608.06;;;4.56
70415;BMP280;57837;52.064;113.478;2022-10-28T07:40:02;94615.75;;;4.59
70415;BMP280;57837;52.064;113.478;2022-10-28T07:43:06;94620.53;;;4.61
70415;BMP280;57837;52.064;113.478;2022-10-28T07:46:10;94623.44;;;4.67
70415;BMP280;57837;52.064;113.478;2022-10-28T07:49:14;94617.59;;;4.91
70415;BMP280;57837;52.064;113.478;2022-10-28T07:52:20;94620.16;;;4.80
70415;BMP280;57837;52.064;113.478;2022-10-28T07:55:23;94614.28;;;4.69
70415;BMP280;57837;52.064;113.478;2022-10-28T07:58:28;94617.59;;;4.84
70415;BMP280;57837;52.064;113.478;2022-10-28T08:01:32;94606.94;;;4.75
70415;BMP280;57837;52.064;113.478;2022-10-28T08:04:36;94615.41;;;4.65
70415;BMP280;57837;52.064;113.478;2022-10-28T08:07:40;94610.63;;;4.59
70415;BMP280;57837;52.064;113.478;2022-10-28T08:10:43;94613.56;;;4.72
70415;BMP280;57837;52.064;113.478;2022-10-28T08:13:46;94603.97;;;5.05
70415;BMP280;57837;52.064;113.478;2022-10-28T08:16:49;94607.31;;;4.80
70415;BMP280;57837;52.064;113.478;2022-10-28T08:19:53;94605.50;;;4.67
70415;BMP280;57837;52.064;113.478;2022-10-28T08:22:57;94609.16;;;4.58
70415;BMP280;57837;52.064;113.478;2022-10-28T08:26:07;94603.31;;;4.51
70415;BMP280;57837;52.064;113.478;2022-10-28T08:29:10;94610.25;;;4.43
70415;BMP280;57837;52.064;113.478;2022-10-28T08:32:13;94616.53;;;4.35
70415;BMP280;57837;52.064;113.478;2022-10-28T08:35:17;94610.63;;;4.28
70415;BMP280;57837;52.064;113.478;2022-10-28T08:38:21;94622.69;;;4.16
70415;BMP280;57837;52.064;113.478;2022-10-28T08:48:27;94618.25;;;3.89
70415;BMP280;57837;52.064;113.478;2022-10-28T08:51:54;94620.03;;;3.77
70415;BMP280;57837;52.064;113.478;2022-10-28T08:55:23;94626.22;;;3.66
70415;BMP280;57837;52.064;113.478;2022-10-28T08:58:31;94634.22;;;3.54
70415;BMP280;57837;52.064;113.478;2022-10-28T09:02:03;94630.88;;;3.42
70415;BMP280;57837;52.064;113.478;2022-10-28T09:05:16;94631.53;;;3.32
70415;BMP280;57837;52.064;113.478;2022-10-28T09:08:23;94631.13;;;3.16
70415;BMP280;57837;52.064;113.478;2022-10-28T09:28:25;94637.75;;;2.32
70415;BMP280;57837;52.064;113.478;2022-10-28T09:31:44;94640.63;;;2.24
70415;BMP280;57837;52.064;113.478;2022-10-28T09:34:55;94642.28;;;2.09
70415;BMP280;57837;52.064;113.478;2022-10-28T09:41:26;94645.00;;;1.93
70415;BMP280;57837;52.064;113.478;2022-10-28T09:47:37;94646.00;;;1.82
70415;BMP280;57837;52.064;113.478;2022-10-28T09:50:42;94642.94;;;1.69
70415;BMP280;57837;52.064;113.478;2022-10-28T09:53:51;94636.56;;;1.56
70415;BMP280;57837;52.064;113.478;2022-10-28T09:56:56;94639.72;;;1.46
70415;BMP280;57837;52.064;113.478;2022-10-28T10:00:00;94644.72;;;1.38
70415;BMP280;57837;52.064;113.478;2022-10-28T10:03:10;94645.41;;;1.32
70415;BMP280;57837;52.064;113.478;2022-10-28T10:06:18;94651.88;;;1.26
70415;BMP280;57837;52.064;113.478;2022-10-28T10:09:30;94645.63;;;1.23
70415;BMP280;57837;52.064;113.478;2022-10-28T10:12:34;94654.97;;;1.16
70415;BMP280;57837;52.064;113.478;2022-10-28T10:15:43;94648.31;;;1.08
70415;BMP280;57837;52.064;113.478;2022-10-28T10:18:50;94647.13;;;1.01
70415;BMP280;57837;52.064;113.478;2022-10-28T10:21:54;94650.44;;;1.02
70415;BMP280;57837;52.064;113.478;2022-10-28T10:24:59;94649.00;;;1.05
70415;BMP280;57837;52.064;113.478;2022-10-28T10:28:04;94652.69;;;1.07
70415;BMP280;57837;52.064;113.478;2022-10-28T10:31:25;94652.38;;;1.12
70415;BMP280;57837;52.064;113.478;2022-10-28T10:34:30;94652.84;;;1.18
70415;BMP280;57837;52.064;113.478;2022-10-28T10:37:34;94653.13;;;1.13
70415;BMP280;57837;52.064;113.478;2022-10-28T10:40:48;94653.09;;;1.09
70415;BMP280;57837;52.064;113.478;2022-10-28T10:43:51;94655.81;;;0.97
70415;BMP280;57837;52.064;113.478;2022-10-28T10:50:21;94666.00;;;0.74
70415;BMP280;57837;52.064;113.478;2022-10-28T10:53:27;94668.41;;;0.67
70415;BMP280;57837;52.064;113.478;2022-10-28T10:56:32;94667.22;;;0.61
70415;BMP280;57837;52.064;113.478;2022-10-28T10:59:35;94669.94;;;0.49
70415;BMP280;57837;52.064;113.478;2022-10-28T11:02:39;94676.38;;;0.43
70415;BMP280;57837;52.064;113.478;2022-10-28T11:05:57;94679.19;;;0.38
70415;BMP280;57837;52.064;113.478;2022-10-28T11:09:29;94676.53;;;0.30
70415;BMP280;57837;52.064;113.478;2022-10-28T11:12:34;94675.38;;;0.28
70415;BMP280;57837;52.064;113.478;2022-10-28T11:15:38;94682.59;;;0.22
70415;BMP280;57837;52.064;113.478;2022-10-28T11:18:44;94683.44;;;0.11
70415;BMP280;57837;52.064;113.478;2022-10-28T11:25:28;94685.09;;;0.03
70415;BMP280;57837;52.064;113.478;2022-10-28T11:35:42;94685.44;;;-0.18
70415;BMP280;57837;52.064;113.478;2022-10-28T11:42:48;94685.03;;;-0.36
70415;BMP280;57837;52.064;113.478;2022-10-28T11:46:09;94689.31;;;-0.40
70415;BMP280;57837;52.064;113.478;2022-10-28T11:53:11;94694.25;;;-0.47
70415;BMP280;57837;52.064;113.478;2022-10-28T11:56:49;94685.53;;;-0.46
70415;BMP280;57837;52.064;113.478;2022-10-28T12:00:15;94694.16;;;-0.50
70415;BMP280;57837;52.064;113.478;2022-10-28T12:19:53;94686.66;;;-0.78
70415;BMP280;57837;52.064;113.478;2022-10-28T12:23:04;94687.97;;;-0.84
70415;BMP280;57837;52.064;113.478;2022-10-28T12:26:14;94686.25;;;-0.96
70415;BMP280;57837;52.064;113.478;2022-10-28T12:29:27;94694.59;;;-0.95
70415;BMP280;57837;52.064;113.478;2022-10-28T12:32:34;94692.06;;;-0.95
70415;BMP280;57837;52.064;113.478;2022-10-28T12:35:44;94689.22;;;-1.10
70415;BMP280;57837;52.064;113.478;2022-10-28T12:38:57;94691.97;;;-1.15
70415;BMP280;57837;52.064;113.478;2022-10-28T12:42:11;94690.84;;;-1.17
70415;BMP280;57837;52.064;113.478;2022-10-28T12:45:18;94694.44;;;-1.18
70415;BMP280;57837;52.064;113.478;2022-10-28T12:48:32;94698.38;;;-1.21
70415;BMP280;57837;52.064;113.478;2022-10-28T12:51:36;94700.41;;;-1.26
70415;BMP280;57837;52.064;113.478;2022-10-28T12:58:05;94698.41;;;-1.33
70415;BMP280;57837;52.064;113.478;2022-10-28T13:01:17;94698.41;;;-1.33
70415;BMP280;57837;52.064;113.478;2022-10-28T13:04:21;94697.06;;;-1.43
70415;BMP280;57837;52.064;113.478;2022-10-28T13:10:51;94695.97;;;-1.57
70415;BMP280;57837;52.064;113.478;2022-10-28T13:27:25;94700.16;;;-1.89
70415;BMP280;57837;52.064;113.478;2022-10-28T13:30:28;94699.03;;;-1.92
70415;BMP280;57837;52.064;113.478;2022-10-28T13:33:38;94695.25;;;-1.98
70415;BMP280;57837;52.064;113.478;2022-10-28T13:36:45;94701.28;;;-2.03
70415;BMP280;57837;52.064;113.478;2022-10-28T13:39:49;94701.50;;;-2.08
70415;BMP280;57837;52.064;113.478;2022-10-28T13:42:53;94696.00;;;-2.10
70415;BMP280;57837;52.064;113.478;2022-10-28T13:45:56;94694.53;;;-2.11
70415;BMP280;57837;52.064;113.478;2022-10-28T13:52:25;94690.09;;;-2.14
70415;BMP280;57837;52.064;113.478;2022-10-28T14:02:21;94706.59;;;-2.32
70415;BMP280;57837;52.064;113.478;2022-10-28T14:08:44;94703.44;;;-2.53
70415;BMP280;57837;52.064;113.478;2022-10-28T14:15:23;94703.91;;;-2.72
70415;BMP280;57837;52.064;113.478;2022-10-28T14:18:26;94716.28;;;-2.83
70415;BMP280;57837;52.064;113.478;2022-10-28T14:22:02;94716.00;;;-3.14
70415;BMP280;57837;52.064;113.478;2022-10-28T14:28:48;94710.84;;;-3.39
70415;BMP280;57837;52.064;113.478;2022-10-28T14:31:52;94713.56;;;-3.44
70415;BMP280;57837;52.064;113.478;2022-10-28T14:35:02;94718.88;;;-3.37
70415;BMP280;57837;52.064;113.478;2022-10-28T14:38:19;94713.31;;;-3.30
70415;BMP280;57837;52.064;113.478;2022-10-28T14:45:22;94710.25;;;-3.23
70415;BMP280;57837;52.064;113.478;2022-10-28T14:51:48;94722.16;;;-3.24
70415;BMP280;57837;52.064;113.478;2022-10-28T14:54:57;94708.16;;;-3.21
70415;BMP280;57837;52.064;113.478;2022-10-28T14:58:37;94706.19;;;-3.16
70415;BMP280;57837;52.064;113.478;2022-10-28T15:05:15;94708.19;;;-3.42
70415;BMP280;57837;52.064;113.478;2022-10-28T15:08:20;94696.59;;;-3.43
70415;BMP280;57837;52.064;113.478;2022-10-28T15:11:23;94706.41;;;-3.42
70415;BMP280;57837;52.064;113.478;2022-10-28T15:17:37;94694.09;;;-3.52
70415;BMP280;57837;52.064;113.478;2022-10-28T15:20:44;94703.63;;;-3.49
70415;BMP280;57837;52.064;113.478;2022-10-28T15:24:00;94713.44;;;-3.47
70415;BMP280;57837;52.064;113.478;2022-10-28T15:27:04;94726.97;;;-3.43
70415;BMP280;57837;52.064;113.478;2022-10-28T15:30:20;94723.75;;;-3.32
70415;BMP280;57837;52.064;113.478;2022-10-28T15:33:30;94714.84;;;-3.38
70415;BMP280;57837;52.064;113.478;2022-10-28T15:36:33;94704.53;;;-3.53
70415;BMP280;57837;52.064;113.478;2022-10-28T15:39:37;94702.41;;;-3.63
70415;BMP280;57837;52.064;113.478;2022-10-28T15:42:49;94694.41;;;-3.66
70415;BMP280;57837;52.064;113.478;2022-10-28T15:46:09;94693.84;;;-3.71
70415;BMP280;57837;52.064;113.478;2022-10-28T15:49:37;94697.13;;;-3.71
70415;BMP280;57837;52.064;113.478;2022-10-28T15:52:42;94704.13;;;-3.76
70415;BMP280;57837;52.064;113.478;2022-10-28T15:55:45;94701.38;;;-3.83
70415;BMP280;57837;52.064;113.478;2022-10-28T15:59:18;94693.53;;;-3.90
70415;BMP280;57837;52.064;113.478;2022-10-28T16:02:39;94695.34;;;-4.00
70415;BMP280;57837;52.064;113.478;2022-10-28T16:05:45;94697.25;;;-4.17
70415;BMP280;57837;52.064;113.478;2022-10-28T16:12:24;94698.75;;;-4.63
70415;BMP280;57837;52.064;113.478;2022-10-28T16:15:28;94697.28;;;-4.64
70415;BMP280;57837;52.064;113.478;2022-10-28T16:18:44;94699.63;;;-4.59
70415;BMP280;57837;52.064;113.478;2022-10-28T16:21:48;94702.78;;;-4.62
70415;BMP280;57837;52.064;113.478;2022-10-28T16:24:52;94701.13;;;-4.58
70415;BMP280;57837;52.064;113.478;2022-10-28T16:27:56;94693.41;;;-4.53
70415;BMP280;57837;52.064;113.478;2022-10-28T16:31:01;94694.59;;;-4.50
70415;BMP280;57837;52.064;113.478;2022-10-28T16:34:04;94697.84;;;-4.50
70415;BMP280;57837;52.064;113.478;2022-10-28T16:37:29;94708.38;;;-4.48
70415;BMP280;57837;52.064;113.478;2022-10-28T16:40:34;94701.38;;;-4.42
70415;BMP280;57837;52.064;113.478;2022-10-28T16:43:54;94698.41;;;-4.44
70415;BMP280;57837;52.064;113.478;2022-10-28T16:46:57;94688.19;;;-4.48
70415;BMP280;57837;52.064;113.478;2022-10-28T16:50:01;94684.34;;;-4.54
70415;BMP280;57837;52.064;113.478;2022-10-28T16:53:04;94686.13;;;-4.54
70415;BMP280;57837;52.064;113.478;2022-10-28T16:56:08;94682.13;;;-4.55
70415;BMP280;57837;52.064;113.478;2022-10-28T16:59:17;94677.50;;;-4.53
70415;BMP280;57837;52.064;113.478;2022-10-28T17:02:40;94677.22;;;-4.52
70415;BMP280;57837;52.064;113.478;2022-10-28T17:05:44;94680.59;;;-4.48
70415;BMP280;57837;52.064;113.478;2022-10-28T17:08:47;94681.34;;;-4.47
70415;BMP280;57837;52.064;113.478;2022-10-28T17:12:03;94684.94;;;-4.57
70415;BMP280;57837;52.064;113.478;2022-10-28T17:15:08;94691.09;;;-4.67
70415;BMP280;57837;52.064;113.478;2022-10-28T17:18:13;94690.81;;;-4.74
70415;BMP280;57837;52.064;113.478;2022-10-28T17:21:16;94695.13;;;-4.74
70415;BMP280;57837;52.064;113.478;2022-10-28T17:24:20;94685.47;;;-4.81
70415;BMP280;57837;52.064;113.478;2022-10-28T17:27:23;94678.38;;;-4.87
70415;BMP280;57837;52.064;113.478;2022-10-28T17:30:27;94681.50;;;-4.90
70415;BMP280;57837;52.064;113.478;2022-10-28T17:33:30;94677.31;;;-4.86
70415;BMP280;57837;52.064;113.478;2022-10-28T17:36:34;94675.97;;;-4.84
70415;BMP280;57837;52.064;113.478;2022-10-28T17:39:37;94669.78;;;-4.95
70415;BMP280;57837;52.064;113.478;2022-10-28T17:42:40;94678.56;;;-5.01
70415;BMP280;57837;52.064;113.478;2022-10-28T17:45:44;94682.13;;;-5.02
70415;BMP280;57837;52.064;113.478;2022-10-28T17:48:48;94677.38;;;-5.12
70415;BMP280;57837;52.064;113.478;2022-10-28T17:51:51;94673.38;;;-5.05
70415;BMP280;57837;52.064;113.478;2022-10-28T17:54:54;94682.56;;;-5.00
70415;BMP280;57837;52.064;113.478;2022-10-28T17:57:58;94687.63;;;-5.17
70415;BMP280;57837;52.064;113.478;2022-10-28T18:01:05;94689.59;;;-5.23
70415;BMP280;57837;52.064;113.478;2022-10-28T18:04:09;94697.59;;;-5.21
70415;BMP280;57837;52.064;113.478;2022-10-28T18:07:14;94697.28;;;-5.28
70415;BMP280;57837;52.064;113.478;2022-10-28T18:10:17;94702.34;;;-5.37
70415;BMP280;57837;52.064;113.478;2022-10-28T18:13:25;94685.41;;;-5.45
70415;BMP280;57837;52.064;113.478;2022-10-28T18:16:28;94683.38;;;-5.51
70415;BMP280;57837;52.064;113.478;2022-10-28T18:19:32;94693.44;;;-5.51
70415;BMP280;57837;52.064;113.478;2022-10-28T18:22:35;94683.50;;;-5.48
70415;BMP280;57837;52.064;113.478;2022-10-28T18:25:38;94681.13;;;-5.36
70415;BMP280;57837;52.064;113.478;2022-10-28T18:28:43;94679.63;;;-5.37
70415;BMP280;57837;52.064;113.478;2022-10-28T18:31:47;94679.22;;;-5.56
70415;BMP280;57837;52.064;113.478;2022-10-28T18:34:50;94681.28;;;-5.67
70415;BMP280;57837;52.064;113.478;2022-10-28T18:37:54;94677.88;;;-5.71
70415;BMP280;57837;52.064;113.478;2022-10-28T18:40:58;94672.81;;;-5.62
70415;BMP280;57837;52.064;113.478;2022-10-28T18:44:03;94679.78;;;-5.68
70415;BMP280;57837;52.064;113.478;2022-10-28T18:47:07;94675.78;;;-5.69
70415;BMP280;57837;52.064;113.478;2022-10-28T18:50:11;94686.59;;;-5.60
70415;BMP280;57837;52.064;113.478;2022-10-28T18:53:14;94688.97;;;-5.63
70415;BMP280;57837;52.064;113.478;2022-10-28T18:56:20;94693.56;;;-5.74
70415;BMP280;57837;52.064;113.478;2022-10-28T18:59:23;94691.50;;;-5.80
70415;BMP280;57837;52.064;113.478;2022-10-28T19:02:26;94699.78;;;-5.89
70415;BMP280;57837;52.064;113.478;2022-10-28T19:05:33;94700.78;;;-5.98
70415;BMP280;57837;52.064;113.478;2022-10-28T19:08:37;94691.44;;;-6.06
70415;BMP280;57837;52.064;113.478;2022-10-28T19:11:40;94691.75;;;-6.08
70415;BMP280;57837;52.064;113.478;2022-10-28T19:14:44;94689.13;;;-6.03
70415;BMP280;57837;52.064;113.478;2022-10-28T19:17:47;94687.75;;;-5.92
70415;BMP280;57837;52.064;113.478;2022-10-28T19:20:51;94682.31;;;-5.85
70415;BMP280;57837;52.064;113.478;2022-10-28T19:23:54;94685.88;;;-5.77
70415;BMP280;57837;52.064;113.478;2022-10-28T19:26:58;94678.31;;;-5.86
70415;BMP280;57837;52.064;113.478;2022-10-28T19:30:02;94685.13;;;-5.87
70415;BMP280;57837;52.064;113.478;2022-10-28T19:33:10;94681.28;;;-5.84
70415;BMP280;57837;52.064;113.478;2022-10-28T19:36:19;94679.50;;;-5.83
70415;BMP280;57837;52.064;113.478;2022-10-28T19:39:22;94678.00;;;-5.76
70415;BMP280;57837;52.064;113.478;2022-10-28T19:42:26;94678.31;;;-5.77
70415;BMP280;57837;52.064;113.478;2022-10-28T19:45:29;94666.31;;;-5.80
70415;BMP280;57837;52.064;113.478;2022-10-28T19:48:33;94664.81;;;-5.81
70415;BMP280;57837;52.064;113.478;2022-10-28T19:51:38;94672.53;;;-5.87
70415;BMP280;57837;52.064;113.478;2022-10-28T19:54:42;94667.16;;;-5.94
70415;BMP280;57837;52.064;113.478;2022-10-28T19:57:46;94669.97;;;-5.95
70415;BMP280;57837;52.064;113.478;2022-10-28T20:01:02;94668.63;;;-5.93
70415;BMP280;57837;52.064;113.478;2022-10-28T20:04:07;94668.66;;;-5.84
70415;BMP280;57837;52.064;113.478;2022-10-28T20:07:12;94654.44;;;-5.89